Joliet, IL

8:33 AM CDT on October 24, 2014 (GMT -0500)
jolietwx.com | Change Station
CLOSE
Current Station
Personal Weather Station
Location: Joliet, IL
Elevation: 648 ft
Nearby Weather Stations

Elev 648 ft 41.55 °N, 88.11 °W | Updated 3 minutes ago

Overcast
Overcast
51.9 °F
Feels Like 51.9 °F
N
0.0
Wind Variable Wind from WSW
Gusts 2.0 mph

Today
High -- | Low -- °F
--% Chance of Precip.
Yesterday
High -- | Low -- °F
Precip. -- in
7:14 AM 5:58 PM
New Moon, 0% visible
Pressure 30.08 in
Visibility 10.0 miles
Clouds Overcast 2500 ft
Dew Point 48 °F
Humidity 86%
Rainfall 0.00 in
Snow Depth Not available.
UV 0 out of 12
Pollen 1.10 out of 12
Ozone Good
PM2.5 Moderate
Flu Activity No Activity
METAR KJOT 241315Z AUTO 00000KT 10SM OVC025 10/08 A3008 RMK AO2 T00950078

More Conditions Fewer Conditions

Pressure 30.08 in
Visibility 10.0 miles
Clouds Overcast 2500 ft
Dew Point 48 °F
Humidity 86%
Rainfall 0.00 in
Snow Depth Not available.
UV 0 out of 12
Pollen 1.10 out of 12
Ozone Good
PM2.5 Moderate
Flu Activity No Activity
METAR KJOT 241315Z AUTO 00000KT 10SM OVC025 10/08 A3008 RMK AO2 T00950078

More Conditions Fewer Conditions

10-Day Weather Forecast

Almanac

Astronomy

Oct. 24, 2014 Rise Set
Actual Time 7:14 AM CDT 5:58 PM CDT
Civil Twilight 6:46 AM CDT 6:26 PM CDT
Nautical Twilight 6:14 AM CDT 6:58 PM CDT
Astronomical Twilight 5:42 AM CDT 7:30 PM CDT
Moon 7:54 AM CDT 6:37 PM CDT
Length of Visible Light 11h 39m
Length of Day
10h 43m
Tomorrow will be 2m 35s shorter.
New Moon, 0% of the Moon is Illuminated
Today
New Moon
Oct 30
First Quarter
Nov 6
Full
Nov 14
Last Quarter
Nov 22
New

Today's Extremes

State Highs State Lows

Community

WunderPhotos

Upload Photos

1,764,550 photos uploaded!

WunderBlogs® & News

Nearby

Air Quality

  Air Quality AQ Index Pollutant
Yesterday Moderate
PM2.5
Yesterday Good
OZONE
Current Moderate
PM2.5
Current Good
OZONE
Friday Moderate
PM2.5
Saturday Good
PM2.5
Sunday Good
PM2.5
Monday Moderate
PM2.5

Snow Depth

Station Depth Elevation
No new snow has been reported.

Earthquake Activity

City Distance Mag. Time & Date
No recent earthquake activity has been reported nearby.
Minimum magnitude displayed is 2.5.

Coastal Water Temperatures

Place Temperature
No Stations Reporting

Nearby Weather Stations